createdAt,value
2022-12-15T00:02:20.775Z,-8.40
2022-12-15T00:05:06.810Z,-8.50
2022-12-15T00:07:53.334Z,-8.60
2022-12-15T00:10:39.411Z,-8.60
2022-12-15T00:13:35.463Z,-8.70
2022-12-15T00:16:21.650Z,-8.80
2022-12-15T00:19:07.739Z,-8.80
2022-12-15T00:21:54.875Z,-8.70
2022-12-15T00:24:41.147Z,-8.80
2022-12-15T00:27:27.560Z,-8.60
2022-12-15T00:30:14.528Z,-8.60
2022-12-15T00:33:00.437Z,-8.70
2022-12-15T00:35:46.158Z,-8.70
2022-12-15T00:38:35.029Z,-8.70
2022-12-15T00:41:04.087Z,-8.80
2022-12-15T00:43:35.244Z,-8.90
2022-12-15T00:46:23.824Z,-8.90
2022-12-15T00:48:52.916Z,-8.90
2022-12-15T00:51:21.315Z,-9.00
2022-12-15T00:54:07.381Z,-9.10
2022-12-15T00:56:53.149Z,-9.20
2022-12-15T00:59:38.857Z,-9.10
2022-12-15T01:02:26.805Z,-9.10
2022-12-15T01:05:13.103Z,-9.20
2022-12-15T01:07:58.962Z,-9.30
2022-12-15T01:10:44.748Z,-9.10
2022-12-15T01:13:32.492Z,-9.10
2022-12-15T01:16:18.853Z,-9.10
2022-12-15T01:19:06.338Z,-9.10
2022-12-15T01:21:35.063Z,-9.20
2022-12-15T01:24:04.101Z,-9.10
2022-12-15T01:26:33.117Z,-8.90
2022-12-15T01:29:01.791Z,-8.90
2022-12-15T01:31:30.647Z,-8.80
2022-12-15T01:34:00.884Z,-8.90
2022-12-15T01:36:29.468Z,-8.70
2022-12-15T01:38:58.326Z,-8.60
2022-12-15T01:41:26.013Z,-8.40
2022-12-15T01:43:54.659Z,-8.40
2022-12-15T01:46:24.665Z,-8.40
2022-12-15T01:49:00.894Z,-8.30
2022-12-15T01:51:34.912Z,-8.30
2022-12-15T01:54:08.539Z,-8.40
2022-12-15T01:56:41.485Z,-8.30
2022-12-15T01:59:16.855Z,-8.30
2022-12-15T02:01:49.971Z,-8.30
2022-12-15T02:04:21.171Z,-8.20
2022-12-15T02:06:53.715Z,-8.00
2022-12-15T02:09:24.301Z,-8.00
2022-12-15T02:12:01.139Z,-8.00
2022-12-15T02:14:46.893Z,-8.10
2022-12-15T02:17:24.335Z,-8.20
2022-12-15T02:20:23.758Z,-8.00
2022-12-15T02:23:30.750Z,-7.90
2022-12-15T02:26:44.201Z,-7.80
2022-12-15T02:29:29.809Z,-8.00
2022-12-15T02:32:03.487Z,-8.20
2022-12-15T02:34:37.486Z,-8.20
2022-12-15T02:37:10.729Z,-8.30
2022-12-15T02:39:40.003Z,-8.30
2022-12-15T02:42:10.112Z,-8.40
2022-12-15T02:44:43.628Z,-8.40
2022-12-15T02:47:29.049Z,-8.50
2022-12-15T02:50:17.671Z,-8.50
2022-12-15T02:52:59.930Z,-8.40
2022-12-15T02:55:37.542Z,-8.00
2022-12-15T02:58:14.951Z,-7.90
2022-12-15T03:00:48.062Z,-7.70
2022-12-15T03:03:21.935Z,-7.40
2022-12-15T03:05:53.641Z,-7.30
2022-12-15T03:08:22.916Z,-7.30
2022-12-15T03:10:54.566Z,-7.30
2022-12-15T03:13:24.450Z,-7.30
2022-12-15T03:15:54.743Z,-7.10
2022-12-15T03:18:25.043Z,-7.00
2022-12-15T03:20:53.940Z,-6.90
2022-12-15T03:23:23.499Z,-6.70
2022-12-15T03:25:52.200Z,-6.60
2022-12-15T03:28:21.022Z,-6.50
2022-12-15T03:30:50.807Z,-6.60
2022-12-15T03:33:20.113Z,-6.70
2022-12-15T03:35:51.450Z,-6.80
2022-12-15T03:38:21.123Z,-6.90
2022-12-15T03:40:49.599Z,-7.00
2022-12-15T03:43:18.646Z,-7.00
2022-12-15T03:45:47.832Z,-7.00
2022-12-15T03:48:17.116Z,-7.10
2022-12-15T03:50:46.110Z,-6.90
2022-12-15T03:53:16.855Z,-7.00
2022-12-15T03:55:45.945Z,-7.10
2022-12-15T03:58:14.679Z,-7.00
2022-12-15T04:00:43.651Z,-7.00
2022-12-15T04:03:12.844Z,-7.00
2022-12-15T04:05:46.441Z,-6.90
2022-12-15T04:08:16.549Z,-7.00
2022-12-15T04:10:45.454Z,-7.10
2022-12-15T04:13:14.633Z,-7.30
2022-12-15T04:15:44.674Z,-7.30
2022-12-15T04:18:13.435Z,-7.20
2022-12-15T04:20:42.673Z,-7.00
2022-12-15T04:23:11.784Z,-6.90
2022-12-15T04:25:59.157Z,-6.70
2022-12-15T04:28:44.746Z,-6.70
2022-12-15T04:31:32.969Z,-6.80
2022-12-15T04:34:21.446Z,-7.00
2022-12-15T04:37:10.286Z,-7.00
2022-12-15T04:39:58.696Z,-6.90
2022-12-15T04:42:47.353Z,-6.80
2022-12-15T04:45:35.806Z,-6.80
2022-12-15T04:48:21.909Z,-6.90
2022-12-15T04:51:07.541Z,-7.00
2022-12-15T04:53:53.313Z,-7.10
2022-12-15T04:56:39.808Z,-7.10
2022-12-15T04:59:27.393Z,-7.00
2022-12-15T05:02:14.108Z,-6.90
2022-12-15T05:05:00.352Z,-7.00
2022-12-15T05:07:46.490Z,-6.90
2022-12-15T05:10:32.738Z,-6.90
2022-12-15T05:13:23.655Z,-7.00
2022-12-15T05:16:11.759Z,-7.10
2022-12-15T05:18:58.155Z,-7.20
2022-12-15T05:21:46.228Z,-7.20
2022-12-15T05:24:34.521Z,-7.20
2022-12-15T05:27:20.214Z,-7.20
2022-12-15T05:30:06.304Z,-7.20
2022-12-15T05:32:37.003Z,-7.30
2022-12-15T05:35:06.616Z,-7.20
2022-12-15T05:37:36.241Z,-7.10
2022-12-15T05:40:06.106Z,-6.90
2022-12-15T05:42:35.117Z,-6.60
2022-12-15T05:45:05.380Z,-6.40
2022-12-15T05:47:36.154Z,-6.40
2022-12-15T05:50:05.585Z,-6.40
2022-12-15T05:52:34.625Z,-6.50
2022-12-15T05:55:03.467Z,-6.70
2022-12-15T05:57:32.141Z,-6.70
2022-12-15T06:00:00.943Z,-6.60
2022-12-15T06:02:30.422Z,-6.40
2022-12-15T06:05:00.873Z,-6.20
2022-12-15T06:07:30.139Z,-6.00
2022-12-15T06:09:58.765Z,-6.10
2022-12-15T06:12:27.607Z,-6.20
2022-12-15T06:14:56.265Z,-6.10
2022-12-15T06:17:25.364Z,-6.00
2022-12-15T06:19:54.142Z,-6.00
2022-12-15T06:22:24.357Z,-6.10
2022-12-15T06:24:55.451Z,-6.10
2022-12-15T06:27:24.568Z,-6.10
2022-12-15T06:29:55.948Z,-6.10
2022-12-15T06:32:24.803Z,-6.10
2022-12-15T06:34:53.898Z,-6.10
2022-12-15T06:37:27.293Z,-6.10
2022-12-15T06:39:56.278Z,-6.10
2022-12-15T06:42:25.254Z,-6.10
2022-12-15T06:44:54.296Z,-6.10
2022-12-15T06:47:24.176Z,-6.10
2022-12-15T06:49:52.988Z,-6.00
2022-12-15T06:52:22.386Z,-6.00
2022-12-15T06:54:53.381Z,-6.00
2022-12-15T06:57:22.405Z,-5.90
2022-12-15T06:59:51.398Z,-5.80
2022-12-15T07:02:27.039Z,-5.60
2022-12-15T07:04:57.951Z,-5.60
2022-12-15T07:07:28.051Z,-5.40
2022-12-15T07:09:58.261Z,-5.20
2022-12-15T07:12:27.527Z,-5.10
2022-12-15T07:14:56.482Z,-5.10
2022-12-15T07:17:25.694Z,-5.10
2022-12-15T07:19:55.241Z,-5.10
2022-12-15T07:22:24.663Z,-5.10
2022-12-15T07:24:53.579Z,-5.30
2022-12-15T07:27:23.991Z,-5.40
2022-12-15T07:29:53.200Z,-5.60
2022-12-15T07:32:25.053Z,-5.80
2022-12-15T07:34:54.038Z,-5.90
2022-12-15T07:37:23.429Z,-6.10
2022-12-15T07:39:52.191Z,-6.20
2022-12-15T07:42:22.813Z,-6.30
2022-12-15T07:44:53.049Z,-6.20
2022-12-15T07:47:21.972Z,-6.10
2022-12-15T07:49:50.954Z,-6.10
2022-12-15T07:52:19.814Z,-6.00
2022-12-15T07:54:51.378Z,-6.00
2022-12-15T07:57:26.782Z,-6.00
2022-12-15T07:59:58.705Z,-6.00
2022-12-15T08:02:27.734Z,-5.90
2022-12-15T08:04:56.822Z,-5.90
2022-12-15T08:07:25.717Z,-5.80
2022-12-15T08:09:55.327Z,-5.70
2022-12-15T08:12:25.923Z,-5.60
2022-12-15T08:14:54.750Z,-5.60
2022-12-15T08:17:23.631Z,-5.60
2022-12-15T08:19:55.755Z,-5.70
2022-12-15T08:22:27.685Z,-5.90
2022-12-15T08:24:56.389Z,-6.00
2022-12-15T08:27:27.510Z,-6.00
2022-12-15T08:29:56.014Z,-5.90
2022-12-15T08:32:24.914Z,-5.90
2022-12-15T08:34:53.820Z,-5.90
2022-12-15T08:37:22.584Z,-5.90
2022-12-15T08:39:52.009Z,-5.80
2022-12-15T08:42:20.584Z,-5.70
2022-12-15T08:44:51.624Z,-5.50
2022-12-15T08:47:20.574Z,-5.30
2022-12-15T08:49:50.620Z,-5.20
2022-12-15T08:52:19.528Z,-5.10
2022-12-15T08:54:48.722Z,-5.00
2022-12-15T08:57:17.643Z,-4.90
2022-12-15T08:59:46.471Z,-4.80
2022-12-15T09:02:17.625Z,-4.60
2022-12-15T09:04:46.767Z,-4.50
2022-12-15T09:07:17.448Z,-4.40
2022-12-15T09:09:46.639Z,-4.30
2022-12-15T09:12:15.603Z,-4.20
2022-12-15T09:14:47.226Z,-4.10
2022-12-15T09:17:18.504Z,-4.10
2022-12-15T09:19:47.361Z,-4.00
2022-12-15T09:22:16.126Z,-3.90
2022-12-15T09:24:48.768Z,-3.80
2022-12-15T09:27:17.811Z,-3.70
2022-12-15T09:29:46.471Z,-3.60
2022-12-15T09:32:20.243Z,-3.50
2022-12-15T09:34:49.037Z,-3.50
2022-12-15T09:37:19.878Z,-3.40
2022-12-15T09:39:51.425Z,-3.30
2022-12-15T09:42:28.068Z,-3.30
2022-12-15T09:45:03.135Z,-3.20
2022-12-15T09:47:41.602Z,-3.10
2022-12-15T09:50:14.432Z,-3.10
2022-12-15T09:52:50.089Z,-3.20
2022-12-15T09:55:22.557Z,-3.10
2022-12-15T09:57:55.159Z,-3.10
2022-12-15T10:00:26.064Z,-3.00
2022-12-15T10:03:23.561Z,-2.90
2022-12-15T10:06:19.170Z,-2.90
2022-12-15T10:08:54.627Z,-2.80
2022-12-15T10:11:35.415Z,-2.80
2022-12-15T10:14:16.945Z,-2.80
2022-12-15T10:16:56.170Z,-2.80
2022-12-15T10:19:35.917Z,-2.70
2022-12-15T10:22:12.442Z,-2.60
2022-12-15T10:25:09.116Z,-2.50
2022-12-15T10:27:50.501Z,-2.50
2022-12-15T10:30:20.004Z,-2.40
2022-12-15T10:32:52.810Z,-2.30
2022-12-15T10:35:29.943Z,-2.20
2022-12-15T10:38:01.375Z,-2.20
2022-12-15T10:40:50.433Z,-2.20
2022-12-15T10:43:31.055Z,-2.10
2022-12-15T10:46:08.703Z,-2.00
2022-12-15T10:48:38.357Z,-2.10
2022-12-15T10:51:18.704Z,-2.20
2022-12-15T10:53:50.566Z,-2.30
2022-12-15T10:56:32.734Z,-2.20
2022-12-15T10:59:05.234Z,-2.20
2022-12-15T11:01:36.723Z,-2.00
2022-12-15T11:04:05.910Z,-2.10
2022-12-15T11:06:39.506Z,-2.10
2022-12-15T11:12:37.016Z,-2.00
2022-12-15T11:15:36.513Z,-1.90
2022-12-15T11:18:13.048Z,-1.80
2022-12-15T11:20:49.023Z,-1.90
2022-12-15T11:23:27.079Z,-1.90
2022-12-15T11:26:04.963Z,-1.90
2022-12-15T11:28:42.898Z,-1.90
2022-12-15T11:31:21.623Z,-2.00
2022-12-15T11:33:54.182Z,-1.90
2022-12-15T11:36:42.057Z,-1.90
2022-12-15T11:39:23.572Z,-2.00
2022-12-15T11:42:00.695Z,-2.00
2022-12-15T11:44:37.844Z,-2.00
2022-12-15T11:47:18.228Z,-2.00
2022-12-15T11:50:33.786Z,-2.00
2022-12-15T11:53:20.301Z,-1.70
2022-12-15T11:55:59.227Z,-1.30
2022-12-15T11:59:06.871Z,-1.30
2022-12-15T12:01:58.874Z,-1.50
2022-12-15T12:04:40.562Z,-1.70
2022-12-15T12:07:18.048Z,-1.70
2022-12-15T12:09:57.106Z,-1.70
2022-12-15T12:12:38.040Z,-1.60
2022-12-15T12:15:24.558Z,-1.40
2022-12-15T12:17:57.851Z,-1.40
2022-12-15T12:20:33.416Z,-1.20
2022-12-15T12:23:08.104Z,-0.90
2022-12-15T12:26:01.111Z,-1.00
2022-12-15T12:29:04.692Z,-1.10
2022-12-15T12:32:00.588Z,-1.10
2022-12-15T12:34:43.781Z,-1.10
2022-12-15T12:37:44.048Z,-1.30
2022-12-15T12:40:36.426Z,-1.40
2022-12-15T12:43:20.850Z,-1.30
2022-12-15T12:46:05.404Z,-1.00
2022-12-15T12:48:41.195Z,-0.60
2022-12-15T12:51:25.332Z,-0.20
2022-12-15T12:54:04.036Z,-0.40
2022-12-15T12:56:52.586Z,-0.60
2022-12-15T12:59:41.152Z,-0.80
2022-12-15T13:02:55.327Z,-1.00
2022-12-15T13:05:32.934Z,-1.00
2022-12-15T13:08:41.358Z,-0.50
2022-12-15T13:11:45.584Z,-0.10
2022-12-15T13:14:25.903Z,-0.30
2022-12-15T13:17:25.559Z,-0.40
2022-12-15T13:20:20.432Z,-0.50
2022-12-15T13:22:52.111Z,-0.40
2022-12-15T13:25:36.151Z,0.60
2022-12-15T13:28:25.634Z,1.90
2022-12-15T13:31:30.713Z,2.80
2022-12-15T13:34:19.914Z,3.50
2022-12-15T13:36:55.047Z,4.30
2022-12-15T13:39:59.885Z,4.90
2022-12-15T13:42:56.172Z,5.50
2022-12-15T13:45:53.823Z,6.00
2022-12-15T13:48:37.433Z,6.40
2022-12-15T13:51:26.230Z,6.70
2022-12-15T13:54:00.842Z,6.90
2022-12-15T13:56:59.964Z,6.90
2022-12-15T13:59:44.366Z,7.00
2022-12-15T14:02:34.032Z,6.90
2022-12-15T14:05:08.707Z,6.40
2022-12-15T14:07:38.752Z,6.10
2022-12-15T14:10:18.750Z,5.90
2022-12-15T14:12:51.778Z,5.90
2022-12-15T14:15:29.949Z,5.90
2022-12-15T14:18:02.110Z,5.90
2022-12-15T14:20:33.652Z,5.70
2022-12-15T14:23:02.731Z,5.30
2022-12-15T14:25:33.097Z,5.10
2022-12-15T14:28:10.601Z,4.30
2022-12-15T14:30:43.292Z,3.90
2022-12-15T14:33:18.397Z,3.70
2022-12-15T14:35:50.029Z,4.10
2022-12-15T14:38:23.776Z,4.20
2022-12-15T14:40:57.027Z,4.40
2022-12-15T14:43:30.347Z,4.50
2022-12-15T14:46:09.427Z,4.30
2022-12-15T14:48:41.993Z,3.10
2022-12-15T14:51:14.911Z,1.50
2022-12-15T14:53:45.666Z,0.50
2022-12-15T14:56:29.672Z,-0.10
2022-12-15T14:59:04.741Z,-0.60
2022-12-15T15:01:40.720Z,-0.90
2022-12-15T15:04:26.877Z,-1.30
2022-12-15T15:06:57.338Z,-1.50
2022-12-15T15:09:29.987Z,-1.60
2022-12-15T15:12:05.070Z,-1.70
2022-12-15T15:14:43.115Z,-1.80
2022-12-15T15:17:22.796Z,-1.90
2022-12-15T15:19:56.276Z,-2.10
2022-12-15T15:22:37.577Z,-2.30
2022-12-15T15:25:28.823Z,-2.70
2022-12-15T15:28:14.279Z,-2.90
2022-12-15T15:30:48.606Z,-3.00
2022-12-15T15:33:22.286Z,-3.00
2022-12-15T15:35:53.433Z,-3.30
2022-12-15T15:38:24.556Z,-3.30
2022-12-15T15:40:55.015Z,-3.50
2022-12-15T15:43:25.741Z,-3.60
2022-12-15T15:46:01.134Z,-3.90
2022-12-15T15:48:33.915Z,-3.80
2022-12-15T15:51:05.110Z,-3.90
2022-12-15T15:53:35.973Z,-4.10
2022-12-15T15:56:09.554Z,-4.30
2022-12-15T15:58:52.996Z,-4.30
2022-12-15T16:01:29.939Z,-4.30
2022-12-15T16:04:03.088Z,-4.40
2022-12-15T16:06:33.641Z,-4.60
2022-12-15T16:09:06.348Z,-4.60
2022-12-15T16:11:38.757Z,-4.50
2022-12-15T16:14:13.837Z,-4.70
2022-12-15T16:16:46.960Z,-4.70
2022-12-15T16:19:27.981Z,-4.90
2022-12-15T16:21:59.210Z,-4.80
2022-12-15T16:24:43.030Z,-4.90
2022-12-15T16:27:14.561Z,-5.00
2022-12-15T16:29:53.540Z,-5.10
2022-12-15T16:32:28.506Z,-5.20
2022-12-15T16:34:58.987Z,-5.50
2022-12-15T16:37:34.822Z,-5.60
2022-12-15T16:40:18.527Z,-5.70
2022-12-15T16:42:58.063Z,-5.80
2022-12-15T16:45:34.047Z,-5.70
2022-12-15T16:48:12.380Z,-5.50
2022-12-15T16:50:48.686Z,-5.30
2022-12-15T16:53:20.760Z,-5.40
2022-12-15T16:55:57.132Z,-5.30
2022-12-15T16:58:30.398Z,-5.30
2022-12-15T17:01:03.509Z,-5.40
2022-12-15T17:03:38.035Z,-5.40
2022-12-15T17:06:10.240Z,-5.40
2022-12-15T17:08:47.732Z,-5.50
2022-12-15T17:11:31.112Z,-5.70
2022-12-15T17:14:02.873Z,-6.00
2022-12-15T17:16:32.183Z,-6.20
2022-12-15T17:19:04.089Z,-6.30
2022-12-15T17:21:36.221Z,-6.40
2022-12-15T17:24:10.662Z,-6.40
2022-12-15T17:26:41.667Z,-6.40
2022-12-15T17:29:19.240Z,-6.30
2022-12-15T17:31:48.616Z,-6.20
2022-12-15T17:34:30.553Z,-6.20
2022-12-15T17:37:00.885Z,-6.30
2022-12-15T17:39:34.241Z,-6.40
2022-12-15T17:42:05.993Z,-6.40
2022-12-15T17:44:40.064Z,-6.40
2022-12-15T17:47:10.790Z,-6.50
2022-12-15T17:49:42.871Z,-6.30
2022-12-15T17:52:27.181Z,-6.30
2022-12-15T17:54:56.848Z,-6.50
2022-12-15T17:57:26.960Z,-6.50
2022-12-15T17:59:56.862Z,-6.60
2022-12-15T18:02:26.477Z,-6.60
2022-12-15T18:04:57.414Z,-6.80
2022-12-15T18:07:26.527Z,-6.80
2022-12-15T18:09:56.413Z,-6.80
2022-12-15T18:12:28.470Z,-6.60
2022-12-15T18:14:58.991Z,-6.50
2022-12-15T18:17:28.664Z,-6.40
2022-12-15T18:19:59.640Z,-6.50
2022-12-15T18:22:28.849Z,-6.60
2022-12-15T18:24:58.149Z,-6.80
2022-12-15T18:27:29.310Z,-6.90
2022-12-15T18:29:58.705Z,-7.10
2022-12-15T18:32:30.129Z,-7.10
2022-12-15T18:35:02.422Z,-7.10
2022-12-15T18:37:36.318Z,-7.20
2022-12-15T18:40:05.969Z,-7.30
2022-12-15T18:42:35.455Z,-7.40
2022-12-15T18:45:05.634Z,-7.50
2022-12-15T18:47:34.649Z,-7.50
2022-12-15T18:50:06.827Z,-7.60
2022-12-15T18:52:37.256Z,-7.60
2022-12-15T18:55:16.378Z,-7.60
2022-12-15T18:57:45.871Z,-7.50
2022-12-15T19:00:26.344Z,-7.50
2022-12-15T19:02:56.816Z,-7.60
2022-12-15T19:05:32.841Z,-7.60
2022-12-15T19:08:09.838Z,-7.60
2022-12-15T19:10:52.732Z,-7.80
2022-12-15T19:13:23.883Z,-7.90
2022-12-15T19:15:54.718Z,-8.00
2022-12-15T19:18:44.048Z,-8.00
2022-12-15T19:21:43.715Z,-7.80
2022-12-15T19:24:15.829Z,-7.90
2022-12-15T19:26:47.084Z,-8.10
2022-12-15T19:29:19.386Z,-8.10
2022-12-15T19:31:49.506Z,-8.00
2022-12-15T19:34:19.357Z,-7.60
2022-12-15T19:36:50.226Z,-7.50
2022-12-15T19:39:24.283Z,-7.70
2022-12-15T19:41:55.091Z,-7.80
2022-12-15T19:44:25.123Z,-7.90
2022-12-15T19:46:55.412Z,-8.00
2022-12-15T19:49:27.346Z,-8.00
2022-12-15T19:52:01.271Z,-8.10
2022-12-15T19:54:31.657Z,-8.10
2022-12-15T19:57:01.432Z,-8.20
2022-12-15T19:59:30.417Z,-8.10
2022-12-15T20:02:01.076Z,-7.90
2022-12-15T20:04:32.978Z,-8.10
2022-12-15T20:07:11.593Z,-8.20
2022-12-15T20:09:42.848Z,-8.30
2022-12-15T20:12:20.171Z,-8.40
2022-12-15T20:14:50.408Z,-8.50
2022-12-15T20:17:20.086Z,-8.50
2022-12-15T20:19:49.340Z,-8.50
2022-12-15T20:22:24.203Z,-8.40
2022-12-15T20:24:53.572Z,-8.30
2022-12-15T20:27:23.223Z,-8.30
2022-12-15T20:29:52.186Z,-8.30
2022-12-15T20:32:23.186Z,-8.40
2022-12-15T20:34:53.361Z,-8.40
2022-12-15T20:37:29.978Z,-8.50
2022-12-15T20:39:59.501Z,-8.50
2022-12-15T20:42:29.891Z,-8.60
2022-12-15T20:44:59.686Z,-8.80
2022-12-15T20:47:31.703Z,-8.70
2022-12-15T20:50:00.581Z,-8.60
2022-12-15T20:52:31.312Z,-8.60
2022-12-15T20:55:00.739Z,-8.40
2022-12-15T20:57:29.934Z,-8.50
2022-12-15T20:59:58.976Z,-8.60
2022-12-15T21:02:30.554Z,-8.60
2022-12-15T21:04:59.997Z,-8.50
2022-12-15T21:07:30.628Z,-8.50
2022-12-15T21:09:59.864Z,-8.60
2022-12-15T21:12:30.628Z,-8.70
2022-12-15T21:14:59.848Z,-8.80
2022-12-15T21:17:29.053Z,-8.90
2022-12-15T21:19:58.807Z,-9.00
2022-12-15T21:22:31.960Z,-9.00
2022-12-15T21:25:06.432Z,-9.00
2022-12-15T21:27:36.020Z,-8.80
2022-12-15T21:30:16.593Z,-8.70
2022-12-15T21:32:56.339Z,-8.60
2022-12-15T21:35:31.797Z,-8.70
2022-12-15T21:38:08.306Z,-8.70
2022-12-15T21:40:42.717Z,-8.70
2022-12-15T21:43:13.565Z,-8.80
2022-12-15T21:45:45.414Z,-8.70
2022-12-15T21:48:33.193Z,-8.30
2022-12-15T21:51:05.634Z,-8.40
2022-12-15T21:53:39.460Z,-8.60
2022-12-15T21:56:12.430Z,-8.60
2022-12-15T21:58:44.959Z,-8.40
2022-12-15T22:01:21.241Z,-8.40
2022-12-15T22:03:55.449Z,-8.40
2022-12-15T22:06:30.408Z,-8.50
2022-12-15T22:09:05.462Z,-8.60
2022-12-15T22:11:39.816Z,-8.70
2022-12-15T22:14:19.931Z,-8.70
2022-12-15T22:16:50.153Z,-8.70
2022-12-15T22:19:21.302Z,-8.80
2022-12-15T22:21:51.008Z,-8.90
2022-12-15T22:24:23.466Z,-8.90
2022-12-15T22:26:57.489Z,-9.00
2022-12-15T22:29:28.257Z,-9.10
2022-12-15T22:31:58.786Z,-9.10
2022-12-15T22:34:29.238Z,-9.10
2022-12-15T22:37:02.115Z,-9.20
2022-12-15T22:39:34.441Z,-9.20
2022-12-15T22:42:05.528Z,-9.20
2022-12-15T22:44:39.578Z,-9.20
2022-12-15T22:47:20.700Z,-9.00
2022-12-15T22:49:50.367Z,-9.00
2022-12-15T22:52:23.318Z,-9.10
2022-12-15T22:54:55.123Z,-9.10
2022-12-15T22:57:26.835Z,-9.20
2022-12-15T23:00:01.168Z,-9.10
2022-12-15T23:02:35.437Z,-9.10
2022-12-15T23:05:06.801Z,-8.90
2022-12-15T23:07:40.493Z,-8.90
2022-12-15T23:10:31.463Z,-9.00
2022-12-15T23:13:01.726Z,-9.10
2022-12-15T23:15:49.083Z,-9.10
2022-12-15T23:18:19.066Z,-9.20
2022-12-15T23:20:52.471Z,-9.20
2022-12-15T23:23:23.363Z,-9.30
2022-12-15T23:25:58.111Z,-9.40
2022-12-15T23:28:27.886Z,-9.50
2022-12-15T23:31:00.256Z,-9.50
2022-12-15T23:33:31.724Z,-9.60
2022-12-15T23:36:03.054Z,-9.60
2022-12-15T23:38:33.930Z,-9.50
2022-12-15T23:41:05.126Z,-9.40
2022-12-15T23:43:36.771Z,-9.50
2022-12-15T23:46:08.395Z,-9.60
2022-12-15T23:48:41.192Z,-9.60
2022-12-15T23:51:16.107Z,-9.70
2022-12-15T23:53:46.563Z,-9.70
2022-12-15T23:56:20.275Z,-9.80
2022-12-15T23:58:52.719Z,-9.80
